sensor_id;sensor_type;location;lat;lon;timestamp;P1;durP1;ratioP1;P2;durP2;ratioP2
11008;SDS011;5557;51.670;7.788;2022-11-20T00:01:09;31.93;;;28.63;;
11008;SDS011;5557;51.670;7.788;2022-11-20T00:03:41;32.67;;;29.30;;
11008;SDS011;5557;51.670;7.788;2022-11-20T00:06:09;34.93;;;31.43;;
11008;SDS011;5557;51.670;7.788;2022-11-20T00:08:38;34.90;;;31.30;;
11008;SDS011;5557;51.670;7.788;2022-11-20T00:11:06;34.30;;;30.87;;
11008;SDS011;5557;51.670;7.788;2022-11-20T00:13:41;32.07;;;28.70;;
11008;SDS011;5557;51.670;7.788;2022-11-20T00:16:13;32.20;;;28.90;;
11008;SDS011;5557;51.670;7.788;2022-11-20T00:18:41;32.30;;;29.10;;
11008;SDS011;5557;51.670;7.788;2022-11-20T00:21:11;33.60;;;30.30;;
11008;SDS011;5557;51.670;7.788;2022-11-20T00:23:42;34.77;;;31.33;;
11008;SDS011;5557;51.670;7.788;2022-11-20T00:26:10;34.40;;;30.77;;
11008;SDS011;5557;51.670;7.788;2022-11-20T00:28:39;33.20;;;29.67;;
11008;SDS011;5557;51.670;7.788;2022-11-20T00:31:11;33.03;;;29.70;;
11008;SDS011;5557;51.670;7.788;2022-11-20T00:33:40;30.00;;;26.80;;
11008;SDS011;5557;51.670;7.788;2022-11-20T00:36:15;32.90;;;29.50;;
11008;SDS011;5557;51.670;7.788;2022-11-20T00:38:52;31.93;;;28.63;;
11008;SDS011;5557;51.670;7.788;2022-11-20T00:41:20;32.53;;;29.27;;
11008;SDS011;5557;51.670;7.788;2022-11-20T00:43:48;30.80;;;27.60;;
11008;SDS011;5557;51.670;7.788;2022-11-20T00:46:16;28.60;;;25.70;;
11008;SDS011;5557;51.670;7.788;2022-11-20T00:48:45;27.50;;;24.90;;
11008;SDS011;5557;51.670;7.788;2022-11-20T00:51:13;31.40;;;28.13;;
11008;SDS011;5557;51.670;7.788;2022-11-20T00:53:42;29.60;;;26.40;;
11008;SDS011;5557;51.670;7.788;2022-11-20T00:56:11;29.73;;;26.63;;
11008;SDS011;5557;51.670;7.788;2022-11-20T00:58:40;30.20;;;27.10;;
11008;SDS011;5557;51.670;7.788;2022-11-20T01:01:19;29.63;;;26.43;;
11008;SDS011;5557;51.670;7.788;2022-11-20T01:03:48;29.40;;;26.30;;
11008;SDS011;5557;51.670;7.788;2022-11-20T01:06:20;30.47;;;27.27;;
11008;SDS011;5557;51.670;7.788;2022-11-20T01:08:49;31.67;;;27.77;;
11008;SDS011;5557;51.670;7.788;2022-11-20T01:11:21;31.60;;;27.77;;
11008;SDS011;5557;51.670;7.788;2022-11-20T01:13:53;33.03;;;29.63;;
11008;SDS011;5557;51.670;7.788;2022-11-20T01:16:25;31.67;;;27.40;;
11008;SDS011;5557;51.670;7.788;2022-11-20T01:19:00;31.00;;;27.80;;
11008;SDS011;5557;51.670;7.788;2022-11-20T01:21:36;29.57;;;26.47;;
11008;SDS011;5557;51.670;7.788;2022-11-20T01:24:05;30.77;;;27.47;;
11008;SDS011;5557;51.670;7.788;2022-11-20T01:26:35;30.13;;;26.93;;
11008;SDS011;5557;51.670;7.788;2022-11-20T01:29:04;33.07;;;29.60;;
11008;SDS011;5557;51.670;7.788;2022-11-20T01:31:36;31.40;;;28.03;;
11008;SDS011;5557;51.670;7.788;2022-11-20T01:34:05;35.17;;;30.07;;
11008;SDS011;5557;51.670;7.788;2022-11-20T01:36:34;34.47;;;28.90;;
11008;SDS011;5557;51.670;7.788;2022-11-20T01:39:06;38.17;;;30.70;;
11008;SDS011;5557;51.670;7.788;2022-11-20T01:41:38;33.33;;;29.83;;
11008;SDS011;5557;51.670;7.788;2022-11-20T01:47:50;31.40;;;28.03;;
11008;SDS011;5557;51.670;7.788;2022-11-20T01:50:18;31.63;;;28.27;;
11008;SDS011;5557;51.670;7.788;2022-11-20T01:52:56;30.97;;;27.60;;
11008;SDS011;5557;51.670;7.788;2022-11-20T01:55:29;33.73;;;30.10;;
11008;SDS011;5557;51.670;7.788;2022-11-20T01:58:00;32.57;;;28.17;;
11008;SDS011;5557;51.670;7.788;2022-11-20T02:00:28;32.50;;;28.70;;
11008;SDS011;5557;51.670;7.788;2022-11-20T02:03:00;34.70;;;27.67;;
11008;SDS011;5557;51.670;7.788;2022-11-20T02:05:35;29.10;;;26.00;;
11008;SDS011;5557;51.670;7.788;2022-11-20T02:08:11;29.90;;;26.67;;
11008;SDS011;5557;51.670;7.788;2022-11-20T02:10:38;29.73;;;26.50;;
11008;SDS011;5557;51.670;7.788;2022-11-20T02:13:06;32.40;;;28.77;;
11008;SDS011;5557;51.670;7.788;2022-11-20T02:15:52;30.43;;;25.80;;
11008;SDS011;5557;51.670;7.788;2022-11-20T02:18:20;28.53;;;25.10;;
11008;SDS011;5557;51.670;7.788;2022-11-20T02:20:48;28.47;;;25.27;;
11008;SDS011;5557;51.670;7.788;2022-11-20T02:23:25;28.10;;;25.07;;
11008;SDS011;5557;51.670;7.788;2022-11-20T02:26:05;25.70;;;23.03;;
11008;SDS011;5557;51.670;7.788;2022-11-20T02:28:35;28.80;;;24.90;;
11008;SDS011;5557;51.670;7.788;2022-11-20T02:31:03;29.33;;;24.50;;
11008;SDS011;5557;51.670;7.788;2022-11-20T02:33:30;28.67;;;25.57;;
11008;SDS011;5557;51.670;7.788;2022-11-20T02:35:57;30.63;;;24.87;;
11008;SDS011;5557;51.670;7.788;2022-11-20T02:38:24;27.50;;;24.57;;
11008;SDS011;5557;51.670;7.788;2022-11-20T02:40:51;28.23;;;24.50;;
11008;SDS011;5557;51.670;7.788;2022-11-20T02:43:22;28.60;;;24.90;;
11008;SDS011;5557;51.670;7.788;2022-11-20T02:45:49;27.00;;;24.10;;
11008;SDS011;5557;51.670;7.788;2022-11-20T02:48:16;27.07;;;24.30;;
11008;SDS011;5557;51.670;7.788;2022-11-20T02:50:43;28.90;;;25.80;;
11008;SDS011;5557;51.670;7.788;2022-11-20T02:53:10;25.50;;;23.00;;
11008;SDS011;5557;51.670;7.788;2022-11-20T02:55:37;26.07;;;23.27;;
11008;SDS011;5557;51.670;7.788;2022-11-20T02:58:04;27.57;;;22.73;;
11008;SDS011;5557;51.670;7.788;2022-11-20T03:00:31;31.60;;;23.50;;
11008;SDS011;5557;51.670;7.788;2022-11-20T03:03:00;24.03;;;21.53;;
11008;SDS011;5557;51.670;7.788;2022-11-20T03:05:27;25.00;;;22.40;;
11008;SDS011;5557;51.670;7.788;2022-11-20T03:07:54;24.87;;;22.27;;
11008;SDS011;5557;51.670;7.788;2022-11-20T03:10:21;26.00;;;23.20;;
11008;SDS011;5557;51.670;7.788;2022-11-20T03:12:52;23.00;;;20.67;;
11008;SDS011;5557;51.670;7.788;2022-11-20T03:15:22;23.23;;;20.17;;
11008;SDS011;5557;51.670;7.788;2022-11-20T03:17:52;23.53;;;21.10;;
11008;SDS011;5557;51.670;7.788;2022-11-20T03:20:21;24.23;;;21.50;;
11008;SDS011;5557;51.670;7.788;2022-11-20T03:22:49;24.60;;;21.07;;
11008;SDS011;5557;51.670;7.788;2022-11-20T03:25:17;23.53;;;21.03;;
11008;SDS011;5557;51.670;7.788;2022-11-20T03:27:44;22.53;;;20.20;;
11008;SDS011;5557;51.670;7.788;2022-11-20T03:30:11;24.70;;;20.53;;
11008;SDS011;5557;51.670;7.788;2022-11-20T03:32:38;21.83;;;19.60;;
11008;SDS011;5557;51.670;7.788;2022-11-20T03:35:29;23.83;;;21.40;;
11008;SDS011;5557;51.670;7.788;2022-11-20T03:37:57;24.17;;;21.43;;
11008;SDS011;5557;51.670;7.788;2022-11-20T03:40:24;22.53;;;20.33;;
11008;SDS011;5557;51.670;7.788;2022-11-20T03:42:51;24.50;;;21.97;;
11008;SDS011;5557;51.670;7.788;2022-11-20T03:45:18;23.00;;;20.57;;
11008;SDS011;5557;51.670;7.788;2022-11-20T03:47:45;24.60;;;22.10;;
11008;SDS011;5557;51.670;7.788;2022-11-20T03:50:12;24.17;;;21.67;;
11008;SDS011;5557;51.670;7.788;2022-11-20T03:52:40;30.07;;;20.10;;
11008;SDS011;5557;51.670;7.788;2022-11-20T03:55:07;29.53;;;20.90;;
11008;SDS011;5557;51.670;7.788;2022-11-20T03:57:35;23.93;;;21.47;;
11008;SDS011;5557;51.670;7.788;2022-11-20T04:00:02;24.80;;;21.53;;
11008;SDS011;5557;51.670;7.788;2022-11-20T04:02:30;22.97;;;20.67;;
11008;SDS011;5557;51.670;7.788;2022-11-20T04:04:57;23.00;;;20.70;;
11008;SDS011;5557;51.670;7.788;2022-11-20T04:07:24;26.00;;;22.23;;
11008;SDS011;5557;51.670;7.788;2022-11-20T04:09:51;24.90;;;21.93;;
11008;SDS011;5557;51.670;7.788;2022-11-20T04:12:18;27.47;;;22.43;;
11008;SDS011;5557;51.670;7.788;2022-11-20T04:14:45;23.63;;;21.00;;
11008;SDS011;5557;51.670;7.788;2022-11-20T04:17:12;23.50;;;21.00;;
11008;SDS011;5557;51.670;7.788;2022-11-20T04:19:39;22.40;;;20.03;;
11008;SDS011;5557;51.670;7.788;2022-11-20T04:22:06;22.43;;;20.10;;
11008;SDS011;5557;51.670;7.788;2022-11-20T04:24:33;28.10;;;20.43;;
11008;SDS011;5557;51.670;7.788;2022-11-20T04:27:00;22.40;;;20.07;;
11008;SDS011;5557;51.670;7.788;2022-11-20T04:29:27;21.10;;;19.10;;
11008;SDS011;5557;51.670;7.788;2022-11-20T04:31:54;23.83;;;21.13;;
11008;SDS011;5557;51.670;7.788;2022-11-20T04:34:21;22.50;;;20.10;;
11008;SDS011;5557;51.670;7.788;2022-11-20T04:36:48;22.23;;;20.10;;
11008;SDS011;5557;51.670;7.788;2022-11-20T04:39:15;25.07;;;22.37;;
11008;SDS011;5557;51.670;7.788;2022-11-20T04:41:43;23.30;;;21.00;;
11008;SDS011;5557;51.670;7.788;2022-11-20T04:44:10;23.70;;;20.93;;
11008;SDS011;5557;51.670;7.788;2022-11-20T04:46:39;25.80;;;22.30;;
11008;SDS011;5557;51.670;7.788;2022-11-20T04:49:07;26.30;;;21.23;;
11008;SDS011;5557;51.670;7.788;2022-11-20T04:51:34;23.00;;;20.60;;
11008;SDS011;5557;51.670;7.788;2022-11-20T04:54:02;26.10;;;22.07;;
11008;SDS011;5557;51.670;7.788;2022-11-20T04:56:29;23.97;;;21.47;;
11008;SDS011;5557;51.670;7.788;2022-11-20T04:59:00;24.87;;;20.90;;
11008;SDS011;5557;51.670;7.788;2022-11-20T05:01:28;22.43;;;20.10;;
11008;SDS011;5557;51.670;7.788;2022-11-20T05:03:55;25.60;;;22.13;;
11008;SDS011;5557;51.670;7.788;2022-11-20T05:06:22;23.57;;;21.07;;
11008;SDS011;5557;51.670;7.788;2022-11-20T05:08:49;22.63;;;20.10;;
11008;SDS011;5557;51.670;7.788;2022-11-20T05:11:18;24.40;;;21.90;;
11008;SDS011;5557;51.670;7.788;2022-11-20T05:13:46;23.17;;;20.23;;
11008;SDS011;5557;51.670;7.788;2022-11-20T05:16:21;23.77;;;20.97;;
11008;SDS011;5557;51.670;7.788;2022-11-20T05:18:50;23.30;;;20.83;;
11008;SDS011;5557;51.670;7.788;2022-11-20T05:21:18;25.17;;;22.50;;
11008;SDS011;5557;51.670;7.788;2022-11-20T05:23:45;24.97;;;22.30;;
11008;SDS011;5557;51.670;7.788;2022-11-20T05:26:21;25.03;;;22.43;;
11008;SDS011;5557;51.670;7.788;2022-11-20T05:28:49;25.73;;;23.00;;
11008;SDS011;5557;51.670;7.788;2022-11-20T05:31:18;25.90;;;23.30;;
11008;SDS011;5557;51.670;7.788;2022-11-20T05:33:53;23.27;;;20.73;;
11008;SDS011;5557;51.670;7.788;2022-11-20T05:36:20;23.20;;;20.80;;
11008;SDS011;5557;51.670;7.788;2022-11-20T05:38:47;22.50;;;20.20;;
11008;SDS011;5557;51.670;7.788;2022-11-20T05:41:18;24.53;;;21.93;;
11008;SDS011;5557;51.670;7.788;2022-11-20T05:43:46;22.60;;;20.30;;
11008;SDS011;5557;51.670;7.788;2022-11-20T05:46:14;29.20;;;21.43;;
11008;SDS011;5557;51.670;7.788;2022-11-20T05:48:45;23.20;;;20.53;;
11008;SDS011;5557;51.670;7.788;2022-11-20T05:51:14;24.53;;;21.90;;
11008;SDS011;5557;51.670;7.788;2022-11-20T05:53:43;25.47;;;21.87;;
11008;SDS011;5557;51.670;7.788;2022-11-20T05:56:20;25.07;;;22.47;;
11008;SDS011;5557;51.670;7.788;2022-11-20T05:58:48;24.30;;;21.80;;
11008;SDS011;5557;51.670;7.788;2022-11-20T06:01:19;23.63;;;21.23;;
11008;SDS011;5557;51.670;7.788;2022-11-20T06:03:48;25.50;;;22.80;;
11008;SDS011;5557;51.670;7.788;2022-11-20T06:06:17;24.23;;;21.73;;
11008;SDS011;5557;51.670;7.788;2022-11-20T06:08:45;25.03;;;22.23;;
11008;SDS011;5557;51.670;7.788;2022-11-20T06:11:13;24.73;;;22.17;;
11008;SDS011;5557;51.670;7.788;2022-11-20T06:13:41;26.90;;;22.67;;
11008;SDS011;5557;51.670;7.788;2022-11-20T06:16:10;26.37;;;23.67;;
11008;SDS011;5557;51.670;7.788;2022-11-20T06:18:38;28.73;;;23.83;;
11008;SDS011;5557;51.670;7.788;2022-11-20T06:21:06;28.40;;;23.07;;
11008;SDS011;5557;51.670;7.788;2022-11-20T06:23:35;26.97;;;24.07;;
11008;SDS011;5557;51.670;7.788;2022-11-20T06:26:22;28.50;;;25.47;;
11008;SDS011;5557;51.670;7.788;2022-11-20T06:28:51;29.90;;;26.20;;
11008;SDS011;5557;51.670;7.788;2022-11-20T06:31:19;28.90;;;25.80;;
11008;SDS011;5557;51.670;7.788;2022-11-20T06:33:48;26.90;;;23.97;;
11008;SDS011;5557;51.670;7.788;2022-11-20T06:36:17;27.93;;;25.10;;
11008;SDS011;5557;51.670;7.788;2022-11-20T06:38:45;27.20;;;24.30;;
11008;SDS011;5557;51.670;7.788;2022-11-20T06:41:13;30.60;;;27.40;;
11008;SDS011;5557;51.670;7.788;2022-11-20T06:43:42;31.57;;;27.20;;
11008;SDS011;5557;51.670;7.788;2022-11-20T06:46:10;30.47;;;27.27;;
11008;SDS011;5557;51.670;7.788;2022-11-20T06:48:39;35.07;;;31.27;;
11008;SDS011;5557;51.670;7.788;2022-11-20T06:51:07;35.00;;;29.83;;
11008;SDS011;5557;51.670;7.788;2022-11-20T06:53:34;38.30;;;29.87;;
11008;SDS011;5557;51.670;7.788;2022-11-20T06:56:02;38.70;;;30.80;;
11008;SDS011;5557;51.670;7.788;2022-11-20T06:58:30;35.50;;;29.80;;
11008;SDS011;5557;51.670;7.788;2022-11-20T07:00:58;35.27;;;30.90;;
11008;SDS011;5557;51.670;7.788;2022-11-20T07:03:34;39.97;;;31.57;;
11008;SDS011;5557;51.670;7.788;2022-11-20T07:06:01;36.00;;;30.97;;
11008;SDS011;5557;51.670;7.788;2022-11-20T07:08:29;34.93;;;31.13;;
11008;SDS011;5557;51.670;7.788;2022-11-20T07:10:57;35.63;;;30.40;;
11008;SDS011;5557;51.670;7.788;2022-11-20T07:13:28;34.33;;;29.60;;
11008;SDS011;5557;51.670;7.788;2022-11-20T07:15:58;39.77;;;31.63;;
11008;SDS011;5557;51.670;7.788;2022-11-20T07:18:30;35.90;;;31.10;;
11008;SDS011;5557;51.670;7.788;2022-11-20T07:21:04;36.97;;;30.50;;
11008;SDS011;5557;51.670;7.788;2022-11-20T07:23:33;45.03;;;34.63;;
11008;SDS011;5557;51.670;7.788;2022-11-20T07:26:04;45.30;;;38.57;;
11008;SDS011;5557;51.670;7.788;2022-11-20T07:28:32;45.93;;;36.10;;
11008;SDS011;5557;51.670;7.788;2022-11-20T07:30:59;44.00;;;35.63;;
11008;SDS011;5557;51.670;7.788;2022-11-20T07:33:27;43.43;;;34.73;;
11008;SDS011;5557;51.670;7.788;2022-11-20T07:35:54;40.40;;;32.50;;
11008;SDS011;5557;51.670;7.788;2022-11-20T07:38:21;38.43;;;31.57;;
11008;SDS011;5557;51.670;7.788;2022-11-20T07:40:52;37.30;;;29.40;;
11008;SDS011;5557;51.670;7.788;2022-11-20T07:43:21;30.20;;;26.10;;
11008;SDS011;5557;51.670;7.788;2022-11-20T07:45:48;26.80;;;23.90;;
11008;SDS011;5557;51.670;7.788;2022-11-20T07:48:15;28.10;;;23.53;;
11008;SDS011;5557;51.670;7.788;2022-11-20T07:50:42;28.13;;;25.10;;
11008;SDS011;5557;51.670;7.788;2022-11-20T07:53:09;32.50;;;26.13;;
11008;SDS011;5557;51.670;7.788;2022-11-20T07:55:36;29.70;;;25.33;;
11008;SDS011;5557;51.670;7.788;2022-11-20T07:58:03;35.00;;;26.20;;
11008;SDS011;5557;51.670;7.788;2022-11-20T08:00:30;30.27;;;27.07;;
11008;SDS011;5557;51.670;7.788;2022-11-20T08:02:58;43.50;;;34.57;;
11008;SDS011;5557;51.670;7.788;2022-11-20T08:05:25;29.13;;;24.43;;
11008;SDS011;5557;51.670;7.788;2022-11-20T08:07:52;25.80;;;22.97;;
11008;SDS011;5557;51.670;7.788;2022-11-20T08:10:18;30.17;;;25.00;;
11008;SDS011;5557;51.670;7.788;2022-11-20T08:12:46;26.80;;;24.00;;
11008;SDS011;5557;51.670;7.788;2022-11-20T08:15:33;36.43;;;24.93;;
11008;SDS011;5557;51.670;7.788;2022-11-20T08:18:02;33.27;;;25.80;;
11008;SDS011;5557;51.670;7.788;2022-11-20T08:20:50;21.27;;;19.10;;
11008;SDS011;5557;51.670;7.788;2022-11-20T08:23:17;23.10;;;19.57;;
11008;SDS011;5557;51.670;7.788;2022-11-20T08:25:48;23.07;;;17.90;;
11008;SDS011;5557;51.670;7.788;2022-11-20T08:28:15;30.30;;;17.43;;
11008;SDS011;5557;51.670;7.788;2022-11-20T08:30:47;20.70;;;16.90;;
11008;SDS011;5557;51.670;7.788;2022-11-20T08:33:15;23.23;;;18.07;;
11008;SDS011;5557;51.670;7.788;2022-11-20T08:35:43;20.50;;;16.13;;
11008;SDS011;5557;51.670;7.788;2022-11-20T08:38:10;27.00;;;16.07;;
11008;SDS011;5557;51.670;7.788;2022-11-20T08:40:37;18.27;;;16.23;;
11008;SDS011;5557;51.670;7.788;2022-11-20T08:43:04;21.23;;;16.90;;
11008;SDS011;5557;51.670;7.788;2022-11-20T08:45:31;24.30;;;16.17;;
11008;SDS011;5557;51.670;7.788;2022-11-20T08:48:00;23.17;;;16.37;;
11008;SDS011;5557;51.670;7.788;2022-11-20T08:50:29;21.57;;;16.70;;
11008;SDS011;5557;51.670;7.788;2022-11-20T08:53:05;21.03;;;15.93;;
11008;SDS011;5557;51.670;7.788;2022-11-20T08:55:32;19.80;;;15.93;;
11008;SDS011;5557;51.670;7.788;2022-11-20T08:58:05;19.63;;;15.67;;
11008;SDS011;5557;51.670;7.788;2022-11-20T09:00:33;18.30;;;14.73;;
11008;SDS011;5557;51.670;7.788;2022-11-20T09:03:00;20.40;;;15.70;;
11008;SDS011;5557;51.670;7.788;2022-11-20T09:05:28;21.10;;;16.83;;
11008;SDS011;5557;51.670;7.788;2022-11-20T09:07:58;21.37;;;16.53;;
11008;SDS011;5557;51.670;7.788;2022-11-20T09:10:25;18.03;;;15.77;;
11008;SDS011;5557;51.670;7.788;2022-11-20T09:12:54;18.83;;;15.13;;
11008;SDS011;5557;51.670;7.788;2022-11-20T09:15:22;15.50;;;13.50;;
11008;SDS011;5557;51.670;7.788;2022-11-20T09:17:57;17.53;;;13.77;;
11008;SDS011;5557;51.670;7.788;2022-11-20T09:20:26;18.40;;;14.80;;
11008;SDS011;5557;51.670;7.788;2022-11-20T09:22:55;15.53;;;13.97;;
11008;SDS011;5557;51.670;7.788;2022-11-20T09:25:23;18.23;;;15.60;;
11008;SDS011;5557;51.670;7.788;2022-11-20T09:27:58;18.17;;;14.50;;
11008;SDS011;5557;51.670;7.788;2022-11-20T09:30:26;17.37;;;14.37;;
11008;SDS011;5557;51.670;7.788;2022-11-20T09:32:53;18.63;;;15.00;;
11008;SDS011;5557;51.670;7.788;2022-11-20T09:35:21;20.63;;;16.20;;
11008;SDS011;5557;51.670;7.788;2022-11-20T09:37:49;17.23;;;14.37;;
11008;SDS011;5557;51.670;7.788;2022-11-20T09:40:21;19.93;;;15.90;;
11008;SDS011;5557;51.670;7.788;2022-11-20T09:49:22;14.83;;;13.33;;
11008;SDS011;5557;51.670;7.788;2022-11-20T09:54:46;13.97;;;11.97;;
11008;SDS011;5557;51.670;7.788;2022-11-20T09:57:20;15.60;;;12.50;;
11008;SDS011;5557;51.670;7.788;2022-11-20T09:59:54;16.00;;;13.00;;
11008;SDS011;5557;51.670;7.788;2022-11-20T10:02:29;14.77;;;12.33;;
11008;SDS011;5557;51.670;7.788;2022-11-20T10:05:18;17.87;;;13.93;;
11008;SDS011;5557;51.670;7.788;2022-11-20T10:08:14;17.90;;;13.37;;
11008;SDS011;5557;51.670;7.788;2022-11-20T10:10:56;18.17;;;13.33;;
11008;SDS011;5557;51.670;7.788;2022-11-20T10:17:00;15.87;;;13.17;;
11008;SDS011;5557;51.670;7.788;2022-11-20T10:28:45;18.70;;;13.17;;
11008;SDS011;5557;51.670;7.788;2022-11-20T10:31:34;19.10;;;14.67;;
11008;SDS011;5557;51.670;7.788;2022-11-20T10:34:07;21.70;;;15.40;;
11008;SDS011;5557;51.670;7.788;2022-11-20T10:36:52;21.30;;;15.70;;
11008;SDS011;5557;51.670;7.788;2022-11-20T10:39:44;22.60;;;14.80;;
11008;SDS011;5557;51.670;7.788;2022-11-20T10:42:44;21.73;;;16.50;;
11008;SDS011;5557;51.670;7.788;2022-11-20T10:45:34;22.00;;;15.97;;
11008;SDS011;5557;51.670;7.788;2022-11-20T10:48:10;26.03;;;17.60;;
11008;SDS011;5557;51.670;7.788;2022-11-20T10:56:30;21.53;;;16.50;;
11008;SDS011;5557;51.670;7.788;2022-11-20T11:02:22;24.70;;;17.70;;
11008;SDS011;5557;51.670;7.788;2022-11-20T11:04:51;21.20;;;16.73;;
11008;SDS011;5557;51.670;7.788;2022-11-20T11:07:23;22.20;;;17.10;;
11008;SDS011;5557;51.670;7.788;2022-11-20T11:09:59;21.07;;;16.80;;
11008;SDS011;5557;51.670;7.788;2022-11-20T11:12:27;22.60;;;17.70;;
11008;SDS011;5557;51.670;7.788;2022-11-20T11:14:56;22.10;;;17.23;;
11008;SDS011;5557;51.670;7.788;2022-11-20T11:20:18;23.00;;;18.23;;
11008;SDS011;5557;51.670;7.788;2022-11-20T11:22:51;23.57;;;16.73;;
11008;SDS011;5557;51.670;7.788;2022-11-20T11:25:25;23.70;;;17.33;;
11008;SDS011;5557;51.670;7.788;2022-11-20T11:27:53;21.13;;;18.10;;
11008;SDS011;5557;51.670;7.788;2022-11-20T11:30:23;22.20;;;17.23;;
11008;SDS011;5557;51.670;7.788;2022-11-20T11:33:02;22.00;;;17.23;;
11008;SDS011;5557;51.670;7.788;2022-11-20T11:35:43;21.33;;;17.07;;
11008;SDS011;5557;51.670;7.788;2022-11-20T11:38:17;20.93;;;16.70;;
11008;SDS011;5557;51.670;7.788;2022-11-20T11:40:48;19.20;;;15.40;;
11008;SDS011;5557;51.670;7.788;2022-11-20T11:43:20;23.13;;;17.33;;
11008;SDS011;5557;51.670;7.788;2022-11-20T11:46:22;24.03;;;17.97;;
11008;SDS011;5557;51.670;7.788;2022-11-20T11:51:58;27.07;;;19.40;;
11008;SDS011;5557;51.670;7.788;2022-11-20T12:00:38;19.93;;;17.77;;
11008;SDS011;5557;51.670;7.788;2022-11-20T12:03:19;22.27;;;17.97;;
11008;SDS011;5557;51.670;7.788;2022-11-20T12:05:49;25.47;;;18.20;;
11008;SDS011;5557;51.670;7.788;2022-11-20T12:08:26;24.03;;;17.70;;
11008;SDS011;5557;51.670;7.788;2022-11-20T12:11:23;20.60;;;17.40;;
11008;SDS011;5557;51.670;7.788;2022-11-20T12:17:17;24.83;;;18.60;;
11008;SDS011;5557;51.670;7.788;2022-11-20T12:19:44;20.33;;;17.37;;
11008;SDS011;5557;51.670;7.788;2022-11-20T12:31:26;25.03;;;18.50;;
11008;SDS011;5557;51.670;7.788;2022-11-20T12:35:05;25.40;;;16.70;;
11008;SDS011;5557;51.670;7.788;2022-11-20T12:37:49;24.70;;;19.87;;
11008;SDS011;5557;51.670;7.788;2022-11-20T12:40:56;25.80;;;18.80;;
11008;SDS011;5557;51.670;7.788;2022-11-20T12:43:57;26.30;;;19.90;;
11008;SDS011;5557;51.670;7.788;2022-11-20T12:47:19;25.73;;;18.83;;
11008;SDS011;5557;51.670;7.788;2022-11-20T12:56:57;30.43;;;21.83;;
11008;SDS011;5557;51.670;7.788;2022-11-20T13:05:55;27.40;;;20.20;;
11008;SDS011;5557;51.670;7.788;2022-11-20T13:08:41;27.27;;;21.50;;
11008;SDS011;5557;51.670;7.788;2022-11-20T13:11:34;30.50;;;22.23;;
11008;SDS011;5557;51.670;7.788;2022-11-20T13:14:22;25.07;;;20.37;;
11008;SDS011;5557;51.670;7.788;2022-11-20T13:17:09;28.57;;;20.10;;
11008;SDS011;5557;51.670;7.788;2022-11-20T13:19:49;26.47;;;21.90;;
11008;SDS011;5557;51.670;7.788;2022-11-20T13:22:31;23.10;;;20.00;;
11008;SDS011;5557;51.670;7.788;2022-11-20T13:25:28;25.90;;;20.80;;
11008;SDS011;5557;51.670;7.788;2022-11-20T13:27:58;23.97;;;18.50;;
11008;SDS011;5557;51.670;7.788;2022-11-20T13:30:29;44.83;;;27.80;;
11008;SDS011;5557;51.670;7.788;2022-11-20T13:35:40;23.50;;;18.80;;
11008;SDS011;5557;51.670;7.788;2022-11-20T13:38:12;28.23;;;18.40;;
11008;SDS011;5557;51.670;7.788;2022-11-20T13:43:47;21.13;;;17.53;;
11008;SDS011;5557;51.670;7.788;2022-11-20T13:46:14;23.07;;;19.87;;
11008;SDS011;5557;51.670;7.788;2022-11-20T13:48:45;24.17;;;19.23;;
11008;SDS011;5557;51.670;7.788;2022-11-20T13:54:39;17.93;;;15.87;;
11008;SDS011;5557;51.670;7.788;2022-11-20T14:00:41;20.07;;;16.50;;
11008;SDS011;5557;51.670;7.788;2022-11-20T14:03:24;20.00;;;17.20;;
11008;SDS011;5557;51.670;7.788;2022-11-20T14:06:28;29.43;;;19.27;;
11008;SDS011;5557;51.670;7.788;2022-11-20T14:08:58;25.23;;;20.00;;
11008;SDS011;5557;51.670;7.788;2022-11-20T14:11:26;32.87;;;23.80;;
11008;SDS011;5557;51.670;7.788;2022-11-20T14:14:10;29.50;;;22.13;;
11008;SDS011;5557;51.670;7.788;2022-11-20T14:16:41;28.30;;;21.40;;
11008;SDS011;5557;51.670;7.788;2022-11-20T14:22:18;25.53;;;18.63;;
11008;SDS011;5557;51.670;7.788;2022-11-20T14:25:06;23.40;;;17.83;;
11008;SDS011;5557;51.670;7.788;2022-11-20T14:27:53;28.17;;;20.40;;
11008;SDS011;5557;51.670;7.788;2022-11-20T14:30:26;24.47;;;18.97;;
11008;SDS011;5557;51.670;7.788;2022-11-20T14:33:02;22.17;;;17.63;;
11008;SDS011;5557;51.670;7.788;2022-11-20T14:35:33;26.90;;;20.20;;
11008;SDS011;5557;51.670;7.788;2022-11-20T14:38:02;28.20;;;19.47;;
11008;SDS011;5557;51.670;7.788;2022-11-20T14:40:31;22.40;;;18.10;;
11008;SDS011;5557;51.670;7.788;2022-11-20T14:43:04;22.50;;;18.23;;
11008;SDS011;5557;51.670;7.788;2022-11-20T14:45:46;23.37;;;17.50;;
11008;SDS011;5557;51.670;7.788;2022-11-20T14:48:28;23.00;;;17.77;;
11008;SDS011;5557;51.670;7.788;2022-11-20T14:50:58;19.87;;;16.57;;
11008;SDS011;5557;51.670;7.788;2022-11-20T14:53:26;23.40;;;16.43;;
11008;SDS011;5557;51.670;7.788;2022-11-20T14:56:00;19.00;;;16.13;;
11008;SDS011;5557;51.670;7.788;2022-11-20T14:58:29;22.90;;;18.13;;
11008;SDS011;5557;51.670;7.788;2022-11-20T15:01:06;20.50;;;16.80;;
11008;SDS011;5557;51.670;7.788;2022-11-20T15:03:39;21.60;;;17.87;;
11008;SDS011;5557;51.670;7.788;2022-11-20T15:06:09;26.50;;;20.70;;
11008;SDS011;5557;51.670;7.788;2022-11-20T15:08:37;26.43;;;20.97;;
11008;SDS011;5557;51.670;7.788;2022-11-20T15:11:15;28.83;;;21.40;;
11008;SDS011;5557;51.670;7.788;2022-11-20T15:13:46;28.67;;;22.90;;
11008;SDS011;5557;51.670;7.788;2022-11-20T15:16:15;25.90;;;21.97;;
11008;SDS011;5557;51.670;7.788;2022-11-20T15:18:45;20.77;;;18.57;;
11008;SDS011;5557;51.670;7.788;2022-11-20T15:21:18;25.27;;;20.63;;
11008;SDS011;5557;51.670;7.788;2022-11-20T15:23:47;24.67;;;19.60;;
11008;SDS011;5557;51.670;7.788;2022-11-20T15:26:20;22.87;;;20.23;;
11008;SDS011;5557;51.670;7.788;2022-11-20T15:28:51;28.40;;;22.97;;
11008;SDS011;5557;51.670;7.788;2022-11-20T15:31:19;27.77;;;22.17;;
11008;SDS011;5557;51.670;7.788;2022-11-20T15:33:49;22.43;;;19.87;;
11008;SDS011;5557;51.670;7.788;2022-11-20T15:36:16;29.70;;;20.90;;
11008;SDS011;5557;51.670;7.788;2022-11-20T15:38:44;24.40;;;20.73;;
11008;SDS011;5557;51.670;7.788;2022-11-20T15:41:11;29.87;;;23.60;;
11008;SDS011;5557;51.670;7.788;2022-11-20T15:43:38;29.77;;;23.23;;
11008;SDS011;5557;51.670;7.788;2022-11-20T15:46:06;24.07;;;21.37;;
11008;SDS011;5557;51.670;7.788;2022-11-20T15:48:39;29.10;;;23.40;;
11008;SDS011;5557;51.670;7.788;2022-11-20T15:54:16;27.40;;;22.70;;
11008;SDS011;5557;51.670;7.788;2022-11-20T15:56:49;27.87;;;22.73;;
11008;SDS011;5557;51.670;7.788;2022-11-20T15:59:19;27.93;;;22.10;;
11008;SDS011;5557;51.670;7.788;2022-11-20T16:01:46;27.77;;;23.20;;
11008;SDS011;5557;51.670;7.788;2022-11-20T16:04:14;27.80;;;22.20;;
11008;SDS011;5557;51.670;7.788;2022-11-20T16:06:42;28.00;;;23.10;;
11008;SDS011;5557;51.670;7.788;2022-11-20T16:09:12;29.10;;;22.77;;
11008;SDS011;5557;51.670;7.788;2022-11-20T16:11:39;26.17;;;21.80;;
11008;SDS011;5557;51.670;7.788;2022-11-20T16:14:08;29.97;;;21.80;;
11008;SDS011;5557;51.670;7.788;2022-11-20T16:16:55;28.73;;;21.43;;
11008;SDS011;5557;51.670;7.788;2022-11-20T16:19:22;30.57;;;24.23;;
11008;SDS011;5557;51.670;7.788;2022-11-20T16:21:49;27.97;;;22.00;;
11008;SDS011;5557;51.670;7.788;2022-11-20T16:24:17;32.63;;;26.23;;
11008;SDS011;5557;51.670;7.788;2022-11-20T16:26:44;32.60;;;23.70;;
11008;SDS011;5557;51.670;7.788;2022-11-20T16:29:11;33.20;;;23.43;;
11008;SDS011;5557;51.670;7.788;2022-11-20T16:31:39;32.93;;;24.77;;